Time;durP1;ratioP1;P1;durP2;ratioP2;P2;SDS_P1;SDS_P2;PMS_P1;PMS_P2;Temp;Humidity;BMP_temperature;BMP_pressure;BME280_temperature;BME280_humidity;BME280_pressure;Samples;Min_cycle;Max_cycle;Signal;HPM_P1;HPM_P2
2024/02/12 00:00:18;;;;;;;;;;;;;;;19.76;51.02;98903.69;2066210;28;6115;-64
2024/02/12 00:01:21;;;;;;;;;;;;;;;19.76;51.03;98909.44;2071005;28;1869;-65
2024/02/12 00:02:22;;;;;;;;;;;;;;;19.76;51.12;98903.69;2070170;28;1533;-65
2024/02/12 00:03:24;;;;;;;;;;;;;;;19.75;51.02;98897.22;2070371;28;1632;-65
2024/02/12 00:04:29;;;;;;;;;;;;;;;19.75;50.98;98902.25;2065313;28;2666;-65
2024/02/12 00:05:33;;;;;;;;;;;;;;;19.75;51.09;98902.97;2074796;28;2628;-65
2024/02/12 00:06:37;;;;;;;;;;;;;;;19.75;50.97;98910.84;2073182;28;1859;-65
2024/02/12 00:07:42;;;;;;;;;;;;;;;19.75;50.94;98905.13;2072368;28;1629;-64
2024/02/12 00:08:44;;;;;;;;;;;;;;;19.74;51.17;98900.78;2068152;28;2534;-65
2024/02/12 00:09:47;;;;;;;;;;;;;;;19.74;50.96;98907.25;2069579;28;2455;-65
2024/02/12 00:10:49;;;;;;;;;;;;;;;19.74;51.03;98906.53;2070172;28;2532;-65
2024/02/12 00:11:50;;;;;;;;;;;;;;;19.73;50.91;98907.94;2071498;28;1898;-65
2024/02/12 00:12:53;;;;;;;;;;;;;;;19.73;51.02;98910.81;2070898;28;1636;-65
2024/02/12 00:13:56;;;;;;;;;;;;;;;19.73;50.94;98910.81;2067507;28;2491;-65
2024/02/12 00:14:59;;;;;;;;;;;;;;;19.72;51.00;98907.19;2068345;28;2234;-65
2024/02/12 00:16:01;;;;;;;;;;;;;;;19.73;50.90;98910.81;2069211;28;2557;-64
2024/02/12 00:17:04;;;;;;;;;;;;;;;19.72;50.94;98900.72;2071416;28;1743;-65
2024/02/12 00:18:06;;;;;;;;;;;;;;;19.72;50.93;98909.34;2067196;28;2625;-65
2024/02/12 00:19:10;;;;;;;;;;;;;;;19.72;50.86;98912.22;2071749;28;2168;-65
2024/02/12 00:20:12;;;;;;;;;;;;;;;19.70;50.99;98912.94;2069466;28;2188;-65
2024/02/12 00:21:14;;;;;;;;;;;;;;;19.72;50.85;98909.34;2069998;28;1862;-65
2024/02/12 00:22:16;;;;;;;;;;;;;;;19.71;50.84;98919.41;2068699;28;2684;-65
2024/02/12 00:23:17;;;;;;;;;;;;;;;19.72;50.79;98920.84;2070720;28;1665;-65
2024/02/12 00:24:19;;;;;;;;;;;;;;;19.70;50.76;98912.94;2066613;28;2089;-65
2024/02/12 00:25:20;;;;;;;;;;;;;;;19.70;50.83;98912.19;2069837;28;2510;-66
2024/02/12 00:26:25;;;;;;;;;;;;;;;19.70;50.92;98923.66;2069968;28;2538;-64
2024/02/12 00:27:27;;;;;;;;;;;;;;;19.69;50.80;98920.06;2071704;28;2609;-65
2024/02/12 00:28:28;;;;;;;;;;;;;;;19.69;50.87;98925.81;2070934;28;1673;-65
2024/02/12 00:29:33;;;;;;;;;;;;;;;19.69;50.88;98922.22;2069101;28;2650;-65
2024/02/12 00:30:35;;;;;;;;;;;;;;;19.70;50.83;98920.78;2072725;28;6096;-65
2024/02/12 00:31:37;;;;;;;;;;;;;;;19.68;50.75;98915.75;2070291;28;2576;-65
2024/02/12 00:32:39;;;;;;;;;;;;;;;19.68;50.59;98921.47;2069356;28;1871;-65
2024/02/12 00:33:40;;;;;;;;;;;;;;;19.68;50.79;98927.22;2070058;28;1546;-65
2024/02/12 00:34:42;;;;;;;;;;;;;;;19.69;50.66;98919.34;2070731;28;1672;-65
2024/02/12 00:35:43;;;;;;;;;;;;;;;19.67;50.78;98915.00;2068234;28;2566;-65
2024/02/12 00:36:45;;;;;;;;;;;;;;;19.67;50.65;98926.47;2068912;28;2507;-65
2024/02/12 00:37:46;;;;;;;;;;;;;;;19.67;50.62;98926.47;2069040;28;1895;-65
2024/02/12 00:38:48;;;;;;;;;;;;;;;19.66;50.68;98919.28;2068180;28;1640;-63
2024/02/12 00:39:49;;;;;;;;;;;;;;;19.66;50.72;98930.78;2068385;28;1677;-64
2024/02/12 00:40:50;;;;;;;;;;;;;;;19.66;50.76;98936.50;2069907;28;2628;-65
2024/02/12 00:41:52;;;;;;;;;;;;;;;19.66;50.62;98933.66;2070002;28;1697;-65
2024/02/12 00:42:58;;;;;;;;;;;;;;;19.65;50.62;98935.06;2070615;28;1703;-65
2024/02/12 00:43:59;;;;;;;;;;;;;;;19.66;50.58;98942.25;2070042;28;1840;-65
2024/02/12 00:45:03;;;;;;;;;;;;;;;19.65;50.52;98937.94;2071537;28;2729;-65
2024/02/12 00:46:04;;;;;;;;;;;;;;;19.65;50.53;98940.81;2068902;28;2768;-65
2024/02/12 00:47:07;;;;;;;;;;;;;;;19.65;50.74;98940.81;2070297;28;1876;-65
2024/02/12 00:48:08;;;;;;;;;;;;;;;19.64;50.64;98936.47;2069327;28;1716;-65
2024/02/12 00:49:10;;;;;;;;;;;;;;;19.65;50.60;98940.81;2066215;28;2587;-65
2024/02/12 00:50:12;;;;;;;;;;;;;;;19.64;50.63;98938.63;2066443;28;2251;-65
2024/02/12 00:51:15;;;;;;;;;;;;;;;19.64;50.48;98939.34;2069510;28;1703;-65
2024/02/12 00:52:18;;;;;;;;;;;;;;;19.64;50.58;98945.09;2070520;28;1637;-65
2024/02/12 00:53:20;;;;;;;;;;;;;;;19.64;50.52;98942.22;2068562;28;2511;-65
2024/02/12 00:54:21;;;;;;;;;;;;;;;19.64;50.43;98945.09;2067024;28;2550;-65
2024/02/12 00:55:23;;;;;;;;;;;;;;;19.63;50.44;98937.91;2070436;28;1930;-65
2024/02/12 00:56:25;;;;;;;;;;;;;;;19.63;50.43;98943.66;2066123;28;2606;-64
2024/02/12 00:57:27;;;;;;;;;;;;;;;19.63;50.42;98946.53;2069420;28;1748;-64
2024/02/12 00:58:28;;;;;;;;;;;;;;;19.62;50.49;98942.19;2068203;28;1597;-64
2024/02/12 00:59:29;;;;;;;;;;;;;;;19.62;50.51;98945.03;2068882;28;2518;-64
2024/02/12 01:00:31;;;;;;;;;;;;;;;19.62;50.48;98947.91;2068132;28;6229;-64
2024/02/12 01:01:34;;;;;;;;;;;;;;;19.61;50.51;98946.47;2072418;28;1866;-64
2024/02/12 01:02:35;;;;;;;;;;;;;;;19.62;50.34;98952.94;2071154;28;1692;-64
2024/02/12 01:03:37;;;;;;;;;;;;;;;19.62;50.47;98950.06;2067700;28;1803;-64
2024/02/12 01:04:38;;;;;;;;;;;;;;;19.62;50.37;98947.19;2070394;28;2648;-64
2024/02/12 01:05:41;;;;;;;;;;;;;;;19.62;50.52;98947.19;2066742;28;1925;-64
2024/02/12 01:06:43;;;;;;;;;;;;;;;19.62;50.40;98947.19;2070971;28;2600;-65
2024/02/12 01:07:45;;;;;;;;;;;;;;;19.60;50.43;98945.00;2070376;28;1934;-64
2024/02/12 01:08:47;;;;;;;;;;;;;;;19.61;50.25;98935.00;2070607;28;1922;-64
2024/02/12 01:09:51;;;;;;;;;;;;;;;19.60;50.37;98947.88;2070446;28;1867;-65
2024/02/12 01:10:52;;;;;;;;;;;;;;;19.60;50.48;98939.25;2070722;28;2133;-64
2024/02/12 01:11:55;;;;;;;;;;;;;;;19.61;50.33;98945.75;2069085;28;1704;-64
2024/02/12 01:12:57;;;;;;;;;;;;;;;19.59;50.24;98937.81;2066906;28;2577;-65
2024/02/12 01:13:59;;;;;;;;;;;;;;;19.60;50.39;98939.25;2068907;28;1732;-65
2024/02/12 01:15:00;;;;;;;;;;;;;;;19.59;50.27;98943.56;2068633;28;2590;-64
2024/02/12 01:16:02;;;;;;;;;;;;;;;19.59;50.41;98949.31;2069082;28;2774;-65
2024/02/12 01:17:04;;;;;;;;;;;;;;;19.59;50.19;98943.56;2067300;28;1592;-64
2024/02/12 01:18:07;;;;;;;;;;;;;;;19.59;50.27;98942.84;2070711;28;2703;-64
2024/02/12 01:19:12;;;;;;;;;;;;;;;19.59;50.23;98943.56;2069130;28;1679;-64
2024/02/12 01:20:14;;;;;;;;;;;;;;;19.59;50.26;98943.56;2068315;28;1723;-64
2024/02/12 01:21:17;;;;;;;;;;;;;;;19.58;50.31;98947.84;2070949;28;2469;-65
2024/02/12 01:22:19;;;;;;;;;;;;;;;19.57;50.38;98949.25;2066783;28;2669;-64
2024/02/12 01:23:21;;;;;;;;;;;;;;;19.58;50.42;98942.09;2070601;28;1612;-65
2024/02/12 01:24:23;;;;;;;;;;;;;;;19.57;50.26;98943.53;2067721;28;2314;-64
2024/02/12 01:25:24;;;;;;;;;;;;;;;19.56;50.20;98942.06;2068027;28;2571;-64
2024/02/12 01:26:25;;;;;;;;;;;;;;;19.57;50.30;98940.66;2076951;28;2675;-65
2024/02/12 01:27:27;;;;;;;;;;;;;;;19.56;50.26;98944.94;2075354;28;2751;-66
2024/02/12 01:28:28;;;;;;;;;;;;;;;19.57;50.25;98940.66;2067490;28;2249;-66
2024/02/12 01:29:29;;;;;;;;;;;;;;;19.57;50.31;98939.94;2069489;28;1715;-65
2024/02/12 01:30:31;;;;;;;;;;;;;;;19.57;50.12;98942.81;2067074;28;6677;-65
2024/02/12 01:31:36;;;;;;;;;;;;;;;19.56;50.27;98942.06;2070236;28;1630;-65
2024/02/12 01:32:37;;;;;;;;;;;;;;;19.56;50.28;98944.94;2067661;28;1810;-65
2024/02/12 01:33:39;;;;;;;;;;;;;;;19.56;50.29;98950.69;2071001;28;1687;-64
2024/02/12 01:34:43;;;;;;;;;;;;;;;19.55;50.27;98949.22;2067018;28;1783;-65
2024/02/12 01:35:48;;;;;;;;;;;;;;;19.56;50.26;98949.94;2067104;28;2569;-66
2024/02/12 01:36:49;;;;;;;;;;;;;;;19.55;50.32;98949.22;2070787;28;1925;-65
2024/02/12 01:37:53;;;;;;;;;;;;;;;19.56;50.26;98949.94;2067226;28;1754;-65
2024/02/12 01:38:56;;;;;;;;;;;;;;;19.55;50.27;98952.09;2067121;28;2234;-66
2024/02/12 01:39:57;;;;;;;;;;;;;;;19.54;50.31;98950.66;2070295;28;2534;-65
2024/02/12 01:40:58;;;;;;;;;;;;;;;19.55;50.27;98948.50;2070656;28;2211;-65
2024/02/12 01:42:08;;;;;;;;;;;;;;;19.53;50.08;98957.78;2071820;28;1663;-65
2024/02/12 01:43:24;;;;;;;;;;;;;;;19.55;50.19;98954.25;2070111;28;1791;-65
2024/02/12 01:44:26;;;;;;;;;;;;;;;19.54;50.25;98949.91;2069443;28;2604;-66
2024/02/12 01:45:27;;;;;;;;;;;;;;;19.53;50.21;98954.91;2070396;28;2617;-65
2024/02/12 01:46:30;;;;;;;;;;;;;;;19.53;50.19;98952.06;2068763;28;1968;-65
2024/02/12 01:47:33;;;;;;;;;;;;;;;19.53;50.12;98949.19;2066876;28;1644;-65
2024/02/12 01:48:36;;;;;;;;;;;;;;;19.54;50.15;98953.53;2069553;28;2073;-65
2024/02/12 01:49:38;;;;;;;;;;;;;;;19.53;50.26;98957.78;2067564;28;2546;-65
2024/02/12 01:50:40;;;;;;;;;;;;;;;19.51;50.20;98957.75;2068828;28;2105;-65
2024/02/12 01:51:44;;;;;;;;;;;;;;;19.52;50.23;98962.09;2068554;28;1716;-64
2024/02/12 01:52:52;;;;;;;;;;;;;;;19.52;50.29;98955.63;2068767;28;1716;-65
2024/02/12 01:53:59;;;;;;;;;;;;;;;19.52;50.21;98962.09;2068061;28;2638;-65
2024/02/12 01:55:02;;;;;;;;;;;;;;;19.52;50.11;98958.50;2070563;28;2065;-65
2024/02/12 01:56:08;;;;;;;;;;;;;;;19.51;50.20;98954.88;2068647;28;2577;-65
2024/02/12 01:57:09;;;;;;;;;;;;;;;19.51;50.12;98957.75;2070874;28;1680;-65
2024/02/12 01:58:12;;;;;;;;;;;;;;;19.51;50.15;98959.91;2069234;28;1763;-64
2024/02/12 01:59:17;;;;;;;;;;;;;;;19.51;50.08;98954.16;2069096;28;2084;-64
2024/02/12 02:00:23;;;;;;;;;;;;;;;19.51;50.17;98960.63;2068505;28;7471;-64
2024/02/12 02:01:24;;;;;;;;;;;;;;;19.51;50.10;98960.63;2070910;28;1655;-64
2024/02/12 02:02:26;;;;;;;;;;;;;;;19.51;49.94;98963.50;2067790;28;2132;-64
2024/02/12 02:03:28;;;;;;;;;;;;;;;19.48;50.23;98962.00;2070991;28;1581;-65
2024/02/12 02:04:30;;;;;;;;;;;;;;;19.50;50.14;98958.44;2069548;28;2544;-65
2024/02/12 02:05:32;;;;;;;;;;;;;;;19.50;50.21;98958.44;2067583;28;2524;-64
2024/02/12 02:06:33;;;;;;;;;;;;;;;19.49;50.07;98957.69;2070614;28;1599;-64
2024/02/12 02:07:36;;;;;;;;;;;;;;;19.50;50.16;98967.78;2070412;28;2205;-65
2024/02/12 02:08:38;;;;;;;;;;;;;;;19.50;50.12;98961.31;2067160;28;2394;-64
2024/02/12 02:09:42;;;;;;;;;;;;;;;19.49;50.11;98960.56;2068580;28;2463;-64
2024/02/12 02:10:45;;;;;;;;;;;;;;;19.49;50.12;98963.44;2071199;28;1592;-65
2024/02/12 02:11:47;;;;;;;;;;;;;;;19.49;49.96;98968.47;2067001;28;1873;-65
2024/02/12 02:12:49;;;;;;;;;;;;;;;19.49;50.13;98963.44;2071158;28;1861;-64
2024/02/12 02:13:52;;;;;;;;;;;;;;;19.49;50.14;98962.72;2065164;28;2586;-64
2024/02/12 02:14:54;;;;;;;;;;;;;;;19.48;50.14;98962.00;2071658;28;1567;-64
2024/02/12 02:15:55;;;;;;;;;;;;;;;19.48;50.08;98959.13;2068280;28;2676;-64
2024/02/12 02:16:57;;;;;;;;;;;;;;;19.47;50.06;98960.56;2068824;28;1679;-65
2024/02/12 02:17:58;;;;;;;;;;;;;;;19.46;50.18;98953.34;2066749;28;2543;-64
2024/02/12 02:19:00;;;;;;;;;;;;;;;19.46;50.04;98959.09;2076543;28;2348;-64
2024/02/12 02:20:02;;;;;;;;;;;;;;;19.46;50.08;98964.84;2067550;28;1656;-65
2024/02/12 02:21:04;;;;;;;;;;;;;;;19.46;50.12;98964.84;2067419;28;1707;-65
2024/02/12 02:22:06;;;;;;;;;;;;;;;19.45;50.10;98958.38;2068098;28;2754;-64
2024/02/12 02:23:08;;;;;;;;;;;;;;;19.45;50.21;98966.97;2068674;28;1656;-64
2024/02/12 02:24:09;;;;;;;;;;;;;;;19.45;50.08;98957.66;2069689;28;2658;-64
2024/02/12 02:25:11;;;;;;;;;;;;;;;19.45;50.09;98969.13;2070311;28;2156;-62
2024/02/12 02:26:13;;;;;;;;;;;;;;;19.45;50.04;98957.66;2067030;28;2490;-64
2024/02/12 02:27:14;;;;;;;;;;;;;;;19.45;50.08;98963.38;2066724;28;2065;-64
2024/02/12 02:28:17;;;;;;;;;;;;;;;19.46;50.11;98956.22;2066223;28;2129;-64
2024/02/12 02:29:18;;;;;;;;;;;;;;;19.45;50.10;98957.66;2066467;28;2585;-64
2024/02/12 02:30:21;;;;;;;;;;;;;;;19.45;50.14;98957.66;2064275;28;6112;-64
2024/02/12 02:31:22;;;;;;;;;;;;;;;19.45;50.13;98957.66;2067669;28;2462;-64
2024/02/12 02:32:23;;;;;;;;;;;;;;;19.45;50.06;98963.38;2069349;28;2570;-65
2024/02/12 02:33:25;;;;;;;;;;;;;;;19.44;50.08;98959.03;2070260;28;1668;-64
2024/02/12 02:34:27;;;;;;;;;;;;;;;19.43;50.08;98963.34;2066517;28;2219;-65
2024/02/12 02:35:30;;;;;;;;;;;;;;;19.44;50.02;98967.66;2068878;28;2593;-65
2024/02/12 02:36:34;;;;;;;;;;;;;;;19.43;50.14;98966.22;2069934;28;1584;-64
2024/02/12 02:37:35;;;;;;;;;;;;;;;19.43;50.07;98972.69;2071225;28;1879;-65
2024/02/12 02:38:37;;;;;;;;;;;;;;;19.43;50.13;98966.94;2065887;28;2148;-65
2024/02/12 02:39:38;;;;;;;;;;;;;;;19.43;50.10;98966.94;2070642;28;2538;-65
2024/02/12 02:40:40;;;;;;;;;;;;;;;19.43;50.15;98971.97;2069930;28;1691;-65
2024/02/12 02:41:42;;;;;;;;;;;;;;;19.43;50.09;98961.19;2068655;28;2255;-65
2024/02/12 02:42:46;;;;;;;;;;;;;;;19.42;50.05;98971.22;2072674;28;1683;-65
2024/02/12 02:43:48;;;;;;;;;;;;;;;19.43;49.99;98971.97;2071750;28;1732;-65
2024/02/12 02:44:50;;;;;;;;;;;;;;;19.43;50.02;98971.97;2069563;28;2574;-65
2024/02/12 02:45:51;;;;;;;;;;;;;;;19.43;50.04;98974.81;2069053;28;2637;-65
2024/02/12 02:46:54;;;;;;;;;;;;;;;19.42;50.03;98965.50;2072044;28;1760;-65
2024/02/12 02:47:56;;;;;;;;;;;;;;;19.43;50.13;98974.81;2069127;28;2602;-65
2024/02/12 02:48:58;;;;;;;;;;;;;;;19.43;50.12;98966.22;2070133;28;2672;-65
2024/02/12 02:50:00;;;;;;;;;;;;;;;19.42;49.96;98970.47;2072310;28;1986;-65
2024/02/12 02:51:01;;;;;;;;;;;;;;;19.41;50.07;98978.38;2072991;28;1728;-65
2024/02/12 02:52:03;;;;;;;;;;;;;;;19.43;49.99;98966.22;2072485;28;2132;-65
2024/02/12 02:53:04;;;;;;;;;;;;;;;19.42;50.05;98976.22;2069415;28;2293;-65
2024/02/12 02:54:08;;;;;;;;;;;;;;;19.41;49.93;98974.78;2069759;28;1957;-65
2024/02/12 02:55:11;;;;;;;;;;;;;;;19.41;49.96;98963.31;2070086;28;2238;-66
2024/02/12 02:56:13;;;;;;;;;;;;;;;19.41;49.93;98975.50;2069455;28;2135;-65
2024/02/12 02:57:15;;;;;;;;;;;;;;;19.41;50.04;98969.03;2070987;28;2538;-66
2024/02/12 02:58:17;;;;;;;;;;;;;;;19.40;49.97;98974.06;2071910;28;2507;-65
2024/02/12 02:59:18;;;;;;;;;;;;;;;19.41;50.02;98969.03;2069818;28;1661;-65
2024/02/12 03:00:20;;;;;;;;;;;;;;;19.41;50.00;98980.53;2067263;28;6216;-65
2024/02/12 03:01:22;;;;;;;;;;;;;;;19.39;49.99;98971.88;2063357;28;1742;-66
2024/02/12 03:02:23;;;;;;;;;;;;;;;19.40;50.04;98974.06;2060167;28;2556;-65
2024/02/12 03:03:25;;;;;;;;;;;;;;;19.40;50.02;98976.19;2062695;28;1912;-65
2024/02/12 03:04:27;;;;;;;;;;;;;;;19.39;50.01;98983.34;2061971;28;1920;-64
2024/02/12 03:05:29;;;;;;;;;;;;;;;19.39;49.95;98975.47;2062156;28;2126;-64
2024/02/12 03:06:30;;;;;;;;;;;;;;;19.39;50.02;98977.59;2060397;28;2535;-65
2024/02/12 03:07:36;;;;;;;;;;;;;;;19.39;50.00;98980.47;2060646;28;1939;-65
2024/02/12 03:08:39;;;;;;;;;;;;;;;19.39;50.01;98977.59;2059823;28;2547;-65
2024/02/12 03:09:40;;;;;;;;;;;;;;;19.38;50.04;98982.63;2059496;28;1906;-65
2024/02/12 03:10:42;;;;;;;;;;;;;;;19.38;50.04;98979.03;2063758;28;1586;-65
2024/02/12 03:11:45;;;;;;;;;;;;;;;19.37;49.97;98980.44;2063884;28;1675;-65
2024/02/12 03:12:46;;;;;;;;;;;;;;;19.39;49.90;98983.34;2062129;28;2567;-65
2024/02/12 03:13:50;;;;;;;;;;;;;;;19.37;49.96;98978.28;2058562;28;2610;-65
2024/02/12 03:14:51;;;;;;;;;;;;;;;19.38;50.04;98976.88;2060512;28;2516;-65
2024/02/12 03:15:53;;;;;;;;;;;;;;;19.37;49.98;98986.16;2062538;28;2606;-65
2024/02/12 03:16:55;;;;;;;;;;;;;;;19.37;50.00;98980.44;2059994;28;1705;-64
2024/02/12 03:17:56;;;;;;;;;;;;;;;19.37;50.08;98984.03;2062654;28;2527;-65
2024/02/12 03:18:59;;;;;;;;;;;;;;;19.37;50.03;98974.69;2060558;28;2944;-65
2024/02/12 03:20:00;;;;;;;;;;;;;;;19.37;50.03;98983.31;2062865;28;2692;-65
2024/02/12 03:21:01;;;;;;;;;;;;;;;19.38;49.92;98981.91;2060192;28;2615;-64
2024/02/12 03:22:03;;;;;;;;;;;;;;;19.37;50.10;98983.31;2063048;28;1739;-65
2024/02/12 03:23:04;;;;;;;;;;;;;;;19.36;49.96;98979.72;2061095;28;2568;-65
2024/02/12 03:24:06;;;;;;;;;;;;;;;19.36;49.93;98976.84;2062502;28;2571;-65
2024/02/12 03:25:08;;;;;;;;;;;;;;;19.35;49.99;98983.25;2059090;28;2192;-65
2024/02/12 03:26:09;;;;;;;;;;;;;;;19.35;50.04;98980.38;2063115;28;1765;-64
2024/02/12 03:27:11;;;;;;;;;;;;;;;19.35;50.02;98986.13;2062292;28;2473;-65
2024/02/12 03:28:12;;;;;;;;;;;;;;;19.34;50.01;98973.22;2059906;28;2627;-65
2024/02/12 03:29:14;;;;;;;;;;;;;;;19.34;50.04;98981.81;2061746;28;2544;-65
2024/02/12 03:30:15;;;;;;;;;;;;;;;19.34;50.07;98987.56;2059162;28;6115;-65
2024/02/12 03:31:17;;;;;;;;;;;;;;;19.34;49.94;98988.28;2060076;28;2986;-64
2024/02/12 03:32:18;;;;;;;;;;;;;;;19.33;50.04;98981.06;2060426;28;1932;-65
2024/02/12 03:33:20;;;;;;;;;;;;;;;19.34;50.01;98990.44;2060040;28;1644;-65
2024/02/12 03:34:21;;;;;;;;;;;;;;;19.34;50.09;98988.28;2064578;28;1845;-65
2024/02/12 03:35:23;;;;;;;;;;;;;;;19.35;50.07;98986.13;2062717;28;2184;-65
2024/02/12 03:36:25;;;;;;;;;;;;;;;19.34;50.06;98988.28;2063520;28;1943;-65
2024/02/12 03:37:27;;;;;;;;;;;;;;;19.35;50.03;98989.00;2060618;28;1574;-65
2024/02/12 03:38:28;;;;;;;;;;;;;;;19.35;49.98;98989.00;2063666;28;2721;-66
2024/02/12 03:39:30;;;;;;;;;;;;;;;19.35;50.04;98983.97;2060216;28;2658;-64
2024/02/12 03:40:33;;;;;;;;;;;;;;;19.35;50.09;98989.00;2063845;28;2567;-65
2024/02/12 03:41:35;;;;;;;;;;;;;;;19.35;50.06;98981.13;2062090;28;2579;-66
2024/02/12 03:42:36;;;;;;;;;;;;;;;19.36;49.92;98996.22;2061942;28;1717;-66
2024/02/12 03:43:38;;;;;;;;;;;;;;;19.37;49.85;98992.63;2057310;28;2655;-66
2024/02/12 03:44:43;;;;;;;;;;;;;;;19.38;49.94;98990.50;2061893;28;1626;-67
2024/02/12 03:45:46;;;;;;;;;;;;;;;19.39;49.94;98995.53;2060432;28;2470;-66
2024/02/12 03:46:47;;;;;;;;;;;;;;;19.39;49.94;99000.56;2062057;28;2429;-66
2024/02/12 03:47:49;;;;;;;;;;;;;;;19.39;49.74;99000.56;2063042;28;1970;-66
2024/02/12 03:59:53;;;;;;;;;;;;;;;19.46;49.75;99005.00;2061054;28;2726;-67
2024/02/12 04:00:55;;;;;;;;;;;;;;;19.47;49.70;99003.63;2058104;28;6492;-67
2024/02/12 04:01:58;;;;;;;;;;;;;;;19.46;49.68;99005.00;2062226;28;2496;-67
2024/02/12 04:02:59;;;;;;;;;;;;;;;19.47;49.60;99000.75;2062926;28;1769;-66
2024/02/12 04:04:00;;;;;;;;;;;;;;;19.47;49.64;99006.47;2060315;28;1694;-67
2024/02/12 04:05:02;;;;;;;;;;;;;;;19.46;49.64;99000.00;2062444;28;2426;-66
2024/02/12 04:06:06;;;;;;;;;;;;;;;19.46;49.66;99007.88;2061141;28;1677;-66
2024/02/12 04:07:07;;;;;;;;;;;;;;;19.46;49.64;99011.47;2061914;28;1939;-66
2024/02/12 04:08:09;;;;;;;;;;;;;;;19.48;49.64;99013.66;2060289;28;2003;-66
2024/02/12 04:09:11;;;;;;;;;;;;;;;19.47;49.75;99012.22;2061165;28;2493;-65
2024/02/12 04:10:13;;;;;;;;;;;;;;;19.46;49.79;99005.72;2062103;28;1802;-66
2024/02/12 04:11:14;;;;;;;;;;;;;;;19.47;49.70;99012.22;2062847;28;2610;-66
2024/02/12 04:12:17;;;;;;;;;;;;;;;19.47;49.83;99012.22;2060260;28;2496;-66
2024/02/12 04:13:19;;;;;;;;;;;;;;;19.47;49.94;99017.97;2057876;28;1932;-66
2024/02/12 04:14:20;;;;;;;;;;;;;;;19.48;49.94;99013.66;2061473;28;2437;-66
2024/02/12 04:15:23;;;;;;;;;;;;;;;19.48;49.92;99013.66;2061033;28;2449;-66
2024/02/12 04:16:24;;;;;;;;;;;;;;;19.48;49.82;99013.66;2059168;28;2389;-66
2024/02/12 04:17:25;;;;;;;;;;;;;;;19.49;49.92;99015.13;2061251;28;2450;-66
2024/02/12 04:18:27;;;;;;;;;;;;;;;19.49;49.93;99017.97;2059009;28;2414;-66
2024/02/12 04:19:28;;;;;;;;;;;;;;;19.48;50.06;99016.53;2060310;28;2378;-66
2024/02/12 04:20:30;;;;;;;;;;;;;;;19.49;49.92;99020.84;2058835;28;2346;-66
2024/02/12 04:21:32;;;;;;;;;;;;;;;19.51;49.87;99012.28;2060079;28;1646;-66
2024/02/12 04:22:34;;;;;;;;;;;;;;;19.52;49.96;99018.78;2061801;28;1698;-66
2024/02/12 04:23:37;;;;;;;;;;;;;;;19.52;50.01;99018.78;2062929;28;1666;-66
2024/02/12 04:24:42;;;;;;;;;;;;;;;19.52;50.02;99015.91;2059402;28;2398;-66
2024/02/12 04:25:44;;;;;;;;;;;;;;;19.53;50.08;99026.69;2062151;28;2402;-66
2024/02/12 04:26:46;;;;;;;;;;;;;;;19.52;50.29;99019.50;2061482;28;1810;-66
2024/02/12 04:27:49;;;;;;;;;;;;;;;19.52;50.29;99025.25;2061632;28;1598;-66
2024/02/12 04:28:51;;;;;;;;;;;;;;;19.53;50.18;99032.44;2061499;28;1985;-67
2024/02/12 04:29:52;;;;;;;;;;;;;;;19.54;50.15;99027.41;2059154;28;2531;-66
2024/02/12 04:30:56;;;;;;;;;;;;;;;19.53;50.11;99028.84;2065404;28;7107;-66
2024/02/12 04:31:58;;;;;;;;;;;;;;;19.52;50.30;99022.38;2069094;28;2090;-66
2024/02/12 04:33:00;;;;;;;;;;;;;;;19.52;50.26;99030.97;2068111;28;1767;-66
2024/02/12 04:34:06;;;;;;;;;;;;;;;19.53;50.41;99031.69;2070678;28;1938;-67
2024/02/12 04:35:07;;;;;;;;;;;;;;;19.53;50.31;99031.69;2068479;28;2240;-67
2024/02/12 04:36:09;;;;;;;;;;;;;;;19.52;50.33;99033.84;2069259;28;2447;-67
2024/02/12 04:37:11;;;;;;;;;;;;;;;19.52;50.00;99036.72;2071826;28;1848;-67
2024/02/12 04:38:12;;;;;;;;;;;;;;;19.53;50.33;99035.28;2068468;28;1660;-66
2024/02/12 04:39:17;;;;;;;;;;;;;;;19.53;50.18;99038.16;2070876;28;1613;-66
2024/02/12 04:40:18;;;;;;;;;;;;;;;19.52;50.17;99042.47;2069213;28;2455;-67
2024/02/12 04:41:19;;;;;;;;;;;;;;;19.51;50.23;99035.25;2068664;28;2396;-66
2024/02/12 04:42:21;;;;;;;;;;;;;;;19.52;50.35;99039.59;2070278;28;1867;-67
2024/02/12 04:43:23;;;;;;;;;;;;;;;19.51;50.16;99035.25;2068317;28;1859;-66
2024/02/12 04:44:24;;;;;;;;;;;;;;;19.52;50.19;99045.34;2070427;28;1871;-67
2024/02/12 04:45:26;;;;;;;;;;;;;;;19.52;50.28;99048.22;2070317;28;2711;-66
2024/02/12 04:46:29;;;;;;;;;;;;;;;19.52;50.29;99042.47;2069389;28;1747;-67
2024/02/12 04:47:31;;;;;;;;;;;;;;;19.52;50.42;99042.47;2072117;28;1720;-67
2024/02/12 04:48:32;;;;;;;;;;;;;;;19.52;50.36;99045.34;2070247;28;1918;-67
2024/02/12 04:49:36;;;;;;;;;;;;;;;19.52;50.32;99045.34;2064739;28;2357;-67
2024/02/12 04:50:38;;;;;;;;;;;;;;;19.53;50.59;99043.19;2070013;28;2587;-66
2024/02/12 04:51:40;;;;;;;;;;;;;;;19.53;50.47;99049.66;2069582;28;2408;-67
2024/02/12 04:52:41;;;;;;;;;;;;;;;19.53;50.29;99061.13;2070167;28;1652;-66
2024/02/12 04:53:43;;;;;;;;;;;;;;;19.54;50.39;99056.88;2070411;28;1834;-66
2024/02/12 04:54:44;;;;;;;;;;;;;;;19.55;50.57;99049.69;2069241;28;2388;-66
2024/02/12 04:55:46;;;;;;;;;;;;;;;19.55;50.27;99064.03;2067804;28;2828;-66
2024/02/12 04:56:49;;;;;;;;;;;;;;;19.56;50.43;99059.03;2070661;28;2857;-66
2024/02/12 04:57:51;;;;;;;;;;;;;;;19.56;50.38;99054.03;2068357;28;1895;-66
2024/02/12 04:58:53;;;;;;;;;;;;;;;19.56;50.56;99056.91;2065765;28;1707;-66
2024/02/12 04:59:55;;;;;;;;;;;;;;;19.57;50.57;99061.22;2067064;28;2388;-66
2024/02/12 05:00:57;;;;;;;;;;;;;;;19.58;50.58;99056.94;2066515;28;6303;-66
2024/02/12 05:01:59;;;;;;;;;;;;;;;19.58;50.63;99056.94;2069454;28;2448;-66
2024/02/12 05:03:00;;;;;;;;;;;;;;;19.58;50.65;99068.41;2067828;28;2618;-66
2024/02/12 05:04:02;;;;;;;;;;;;;;;19.58;50.60;99065.53;2066206;28;2433;-66
2024/02/12 05:05:05;;;;;;;;;;;;;;;19.58;50.76;99051.19;2067843;28;2413;-66
2024/02/12 05:06:06;;;;;;;;;;;;;;;19.58;50.70;99061.94;2066210;28;2782;-66
2024/02/12 05:07:08;;;;;;;;;;;;;;;19.58;50.79;99067.69;2070208;28;2600;-66
2024/02/12 05:08:09;;;;;;;;;;;;;;;19.57;50.75;99063.38;2071098;28;1851;-66
2024/02/12 05:09:10;;;;;;;;;;;;;;;19.57;50.66;99069.84;2067884;28;2828;-66
2024/02/12 05:10:12;;;;;;;;;;;;;;;19.58;50.71;99067.69;2071404;28;1909;-67
2024/02/12 05:11:14;;;;;;;;;;;;;;;19.57;50.70;99075.56;2067804;28;2169;-66
2024/02/12 05:12:15;;;;;;;;;;;;;;;19.57;50.54;99066.97;2066652;28;1808;-67
2024/02/12 05:13:17;;;;;;;;;;;;;;;19.57;50.53;99072.72;2067336;28;1939;-66
2024/02/12 05:14:23;;;;;;;;;;;;;;;19.57;50.88;99066.97;2070668;28;2047;-66
2024/02/12 05:15:25;;;;;;;;;;;;;;;19.56;50.66;99071.25;2065809;28;1855;-65
2024/02/12 05:16:32;;;;;;;;;;;;;;;19.56;50.66;99074.13;2066979;28;1978;-66
2024/02/12 05:17:52;;;;;;;;;;;;;;;19.56;50.75;99079.88;2066180;28;1856;-67
2024/02/12 05:22:54;;;;;;;;;;;;;;;19.56;50.83;99082.75;2068646;28;1634;-66
2024/02/12 05:23:55;;;;;;;;;;;;;;;19.55;50.80;99075.53;2066333;28;2404;-66
2024/02/12 05:24:58;;;;;;;;;;;;;;;19.56;50.90;99076.25;2067384;28;2521;-66
2024/02/12 05:26:00;;;;;;;;;;;;;;;19.56;50.91;99077.00;2070956;28;2515;-66
2024/02/12 05:27:01;;;;;;;;;;;;;;;19.56;50.62;99071.25;2071214;28;1875;-67
2024/02/12 05:28:03;;;;;;;;;;;;;;;19.58;50.77;99085.63;2069793;28;1796;-66
2024/02/12 05:29:06;;;;;;;;;;;;;;;19.59;50.72;99081.38;2067351;28;2200;-67
2024/02/12 05:30:08;;;;;;;;;;;;;;;19.59;50.81;99084.25;2065800;28;7414;-66
2024/02/12 05:31:09;;;;;;;;;;;;;;;19.57;50.61;99075.56;2070169;28;2041;-65
2024/02/12 05:32:11;;;;;;;;;;;;;;;19.59;50.72;99078.50;2068428;28;1874;-67
2024/02/12 05:33:13;;;;;;;;;;;;;;;19.60;50.68;99085.69;2070991;28;2403;-66
2024/02/12 05:34:15;;;;;;;;;;;;;;;19.61;50.93;99089.31;2070999;28;2353;-66
2024/02/12 05:35:16;;;;;;;;;;;;;;;19.62;50.88;99082.13;2066942;28;2310;-66
2024/02/12 05:36:20;;;;;;;;;;;;;;;19.61;51.05;99090.03;2070084;28;2352;-66
2024/02/12 05:37:21;;;;;;;;;;;;;;;19.61;51.08;99090.03;2068712;28;2108;-66
2024/02/12 05:38:23;;;;;;;;;;;;;;;19.61;50.75;99080.69;2068415;28;1792;-67
2024/02/12 05:39:25;;;;;;;;;;;;;;;19.61;50.94;99090.03;2067289;28;1729;-66
2024/02/12 05:40:26;;;;;;;;;;;;;;;19.61;51.04;99090.03;2069607;28;1780;-66
2024/02/12 05:41:28;;;;;;;;;;;;;;;19.60;51.13;99091.44;2066976;28;2026;-66
2024/02/12 05:42:29;;;;;;;;;;;;;;;19.56;51.19;99088.50;2069427;28;1743;-66
2024/02/12 05:43:30;;;;;;;;;;;;;;;19.52;51.25;99087.66;2069411;28;2197;-67